Dades meteomassalio
Diari Summary for Febrer 8, 2018 Units:  English    Metric   Both
« Previous Day
Next Day »
Diari Semanal Mensual Anual Personalitzat
  Maxima: Minima: Mijana:
Temperatura: TemperatureC °F -2.2 °F 2.2 °F
Rosada: DewpointC °F -3.9 °F -1.4 °F
Humitat: Humidity % 63 % 77 %
Velocitat del vent: WindSpeedKMH mph 0.0 mph 18.7 mph
Racha vent: WindSpeedGustKMH mph - -
Vent:- - WNW
Pressio: PressurehPa in 1019.9 in -
Pluja: 0.5 in    
Historical Graphs
 
 
Tabular Data for Febrer 8, 2018
Time Temperature Dew Point Pressure Wind Wind Speed Wind Gust Humidity Rainfall Rate (Hourly) solar Conditions
TemperatureC °F DewpointC °F PressurehPa in Calm     Humidity % HourlyPrecipMM in SolarRadiationWatts/m^2 W/m2 Conditions
00:02 1.7 °F -2.1 °F 1021.6 in NW 16.7 mph 16.7 mph 76 % 0.0 in 0.0 W/m2 CLR
00:07 1.7 °F -2.1 °F 1021.6 in NW 11.1 mph 11.1 mph 76 % 0.0 in 0.0 W/m2 CLR
00:12 1.7 °F -2.1 °F 1021.6 in NW 18.5 mph 18.5 mph 76 % 0.0 in 0.0 W/m2 CLR
00:17 1.7 °F -1.9 °F 1021.6 in NW 18.5 mph 18.5 mph 77 % 0.0 in 0.0 W/m2 CLR
00:22 1.7 °F -1.9 °F 1021.6 in WNW 27.8 mph 27.8 mph 77 % 0.0 in 0.0 W/m2 CLR
00:27 1.7 °F -1.9 °F 1021.6 in WNW 14.8 mph 14.8 mph 77 % 0.0 in 0.0 W/m2 CLR
00:32 1.7 °F -1.9 °F 1021.6 in NW 27.8 mph 27.8 mph 77 % 0.0 in 0.0 W/m2 CLR
00:37 1.7 °F -1.8 °F 1021.6 in NW 20.4 mph 20.4 mph 78 % 0.0 in 0.0 W/m2 CLR
00:42 1.7 °F -1.8 °F 1021.6 in NNW 20.9 mph 20.9 mph 78 % 0.0 in 0.0 W/m2 CLR
00:47 1.7 °F -1.8 °F 1021.6 in NW 18.5 mph 18.5 mph 78 % 0.0 in 0.0 W/m2 CLR
00:52 1.7 °F -1.8 °F 1021.6 in NW 22.5 mph 22.5 mph 78 % 0.0 in 0.0 W/m2 CLR
00:57 1.1 °F -2.3 °F 1021.6 in NW 22.2 mph 22.2 mph 78 % 0.0 in 0.0 W/m2 CLR
01:02 1.1 °F -2.5 °F 1021.6 in NW 29.6 mph 29.6 mph 77 % 0.0 in 0.0 W/m2 CLR
01:07 1.1 °F -2.5 °F 1021.9 in WNW 20.4 mph 20.4 mph 77 % 0.0 in 0.0 W/m2 CLR
01:12 1.1 °F -2.5 °F 1021.9 in NW 20.9 mph 20.9 mph 77 % 0.0 in 0.0 W/m2 CLR
01:17 1.1 °F -2.5 °F 1021.6 in NW 24.1 mph 24.1 mph 77 % 0.0 in 0.0 W/m2 CLR
01:22 1.1 °F -2.5 °F 1021.6 in NW 22.2 mph 22.2 mph 77 % 0.0 in 0.0 W/m2 CLR
01:27 1.1 °F -2.7 °F 1021.6 in NW 18.5 mph 18.5 mph 76 % 0.0 in 0.0 W/m2 CLR
01:32 1.1 °F -2.7 °F 1021.6 in NW 20.9 mph 20.9 mph 76 % 0.0 in 0.0 W/m2 CLR
01:37 1.1 °F -2.7 °F 1021.6 in NW 24.1 mph 24.1 mph 76 % 0.0 in 0.0 W/m2 CLR
01:42 1.1 °F -2.7 °F 1021.6 in NW 20.4 mph 20.4 mph 76 % 0.0 in 0.0 W/m2 CLR
01:47 1.1 °F -2.7 °F 1021.6 in NW 24.1 mph 24.1 mph 76 % 0.0 in 0.0 W/m2 CLR
01:52 1.1 °F -2.8 °F 1021.6 in NW 22.5 mph 22.5 mph 75 % 0.0 in 0.0 W/m2 CLR
01:54 1.1 °F -2.8 °F 1021.6 in WNW 22.2 mph 22.2 mph 75 % 0.0 in 0.0 W/m2 CLR
01:59 1.1 °F -2.8 °F 1021.6 in WNW 29.6 mph 29.6 mph 75 % 0.0 in 0.0 W/m2 CLR
02:04 1.1 °F -2.8 °F 1021.6 in WNW 31.5 mph 31.5 mph 75 % 0.0 in 0.0 W/m2 CLR
02:09 1.1 °F -3.0 °F 1021.6 in WNW 27.8 mph 27.8 mph 74 % 0.0 in 0.0 W/m2 CLR
02:14 1.1 °F -2.8 °F 1021.6 in WNW 22.2 mph 22.2 mph 75 % 0.0 in 0.0 W/m2 CLR
02:19 1.1 °F -3.0 °F 1021.6 in NW 20.4 mph 20.4 mph 74 % 0.0 in 0.0 W/m2 CLR
02:24 0.6 °F -3.4 °F 1021.6 in NW 20.4 mph 20.4 mph 75 % 0.0 in 0.0 W/m2 CLR
02:29 0.6 °F -3.4 °F 1021.6 in NW 20.4 mph 20.4 mph 75 % 0.0 in 0.0 W/m2 CLR
02:34 0.6 °F -3.4 °F 1021.6 in NW 32.2 mph 32.2 mph 75 % 0.0 in 0.0 W/m2 CLR
02:39 0.6 °F -3.4 °F 1021.6 in NW 24.1 mph 24.1 mph 75 % 0.0 in 0.0 W/m2 CLR
02:44 0.6 °F -3.4 °F 1021.6 in NW 22.2 mph 22.2 mph 75 % 0.0 in 0.0 W/m2 CLR
02:49 0.6 °F -3.4 °F 1021.6 in NW 18.5 mph 18.5 mph 75 % 0.0 in 0.0 W/m2 CLR
02:54 0.6 °F -3.4 °F 1021.6 in WNW 20.4 mph 20.4 mph 75 % 0.0 in 0.0 W/m2 CLR
02:59 0.6 °F -3.4 °F 1021.6 in WNW 16.7 mph 16.7 mph 75 % 0.0 in 0.0 W/m2 CLR
03:04 0.6 °F -3.4 °F 1021.6 in NW 18.5 mph 18.5 mph 75 % 0.0 in 0.0 W/m2 CLR
03:09 0.6 °F -3.4 °F 1021.6 in NW 20.4 mph 20.4 mph 75 % 0.0 in 0.0 W/m2 CLR
03:14 0.6 °F -3.2 °F 1021.6 in NW 18.5 mph 18.5 mph 76 % 0.0 in 0.0 W/m2 CLR
03:19 0.0 °F -3.7 °F 1021.6 in NW 16.7 mph 16.7 mph 76 % 0.0 in 0.0 W/m2 CLR
03:36 0.0 °F -3.7 °F 1021.6 in NW 25.9 mph 25.9 mph 76 % 0.0 in 0.0 W/m2 CLR
03:41 0.0 °F -3.7 °F 1021.6 in NW 14.8 mph 14.8 mph 76 % 0.0 in 0.0 W/m2 CLR
03:46 0.0 °F -3.7 °F 1021.6 in NW 19.3 mph 19.3 mph 76 % 0.0 in 0.0 W/m2 CLR
03:51 0.0 °F -3.7 °F 1021.6 in NNW 16.7 mph 16.7 mph 76 % 0.0 in 0.0 W/m2 CLR
03:56 0.0 °F -3.6 °F 1021.6 in NW 20.4 mph 20.4 mph 77 % 0.0 in 0.0 W/m2 CLR
04:01 0.0 °F -3.6 °F 1021.6 in NW 14.8 mph 14.8 mph 77 % 0.0 in 0.0 W/m2 CLR
04:06 0.0 °F -3.6 °F 1021.6 in WNW 14.5 mph 14.5 mph 77 % 0.0 in 0.0 W/m2 CLR
04:11 0.0 °F -3.6 °F 1021.6 in WNW 16.7 mph 16.7 mph 77 % 0.0 in 0.0 W/m2 CLR
04:16 0.0 °F -3.6 °F 1021.6 in NW 18.5 mph 18.5 mph 77 % 0.0 in 0.0 W/m2 CLR
04:21 0.0 °F -3.4 °F 1021.6 in NW 20.4 mph 20.4 mph 78 % 0.0 in 0.0 W/m2 CLR
04:26 0.0 °F -3.4 °F 1021.6 in NW 18.5 mph 18.5 mph 78 % 0.0 in 0.0 W/m2 CLR
04:31 0.0 °F -3.4 °F 1021.6 in NW 18.5 mph 18.5 mph 78 % 0.0 in 0.0 W/m2 CLR
04:36 0.0 °F -3.4 °F 1021.6 in WNW 20.4 mph 20.4 mph 78 % 0.0 in 0.0 W/m2 CLR
04:41 0.0 °F -3.4 °F 1021.2 in NW 18.5 mph 18.5 mph 78 % 0.0 in 0.0 W/m2 CLR
04:46 0.0 °F -3.4 °F 1021.2 in WNW 24.1 mph 24.1 mph 78 % 0.0 in 0.0 W/m2 CLR
04:51 0.0 °F -3.6 °F 1021.2 in NW 18.5 mph 18.5 mph 77 % 0.0 in 0.0 W/m2 CLR
04:56 0.0 °F -3.6 °F 1021.2 in WNW 16.7 mph 16.7 mph 77 % 0.0 in 0.0 W/m2 CLR
05:01 0.0 °F -3.6 °F 1021.2 in West 7.4 mph 7.4 mph 77 % 0.0 in 0.0 W/m2 CLR
05:06 0.0 °F -3.6 °F 1021.2 in West 6.4 mph 6.4 mph 77 % 0.0 in 0.0 W/m2 CLR
05:11 -0.6 °F -3.9 °F 1021.6 in NNW 13.0 mph 13.0 mph 78 % 0.0 in 0.0 W/m2 CLR
05:16 -0.6 °F -3.9 °F 1021.6 in NW 16.1 mph 16.1 mph 78 % 0.0 in 0.0 W/m2 CLR
05:21 -0.6 °F -3.8 °F 1021.6 in NW 20.9 mph 20.9 mph 79 % 0.0 in 0.0 W/m2 CLR
05:26 0.0 °F -3.2 °F 1021.6 in NW 24.1 mph 24.1 mph 79 % 0.0 in 0.0 W/m2 CLR
05:31 0.0 °F -3.4 °F 1021.6 in NW 19.3 mph 19.3 mph 78 % 0.0 in 0.0 W/m2 CLR
05:36 0.0 °F -3.4 °F 1021.6 in NW 22.2 mph 22.2 mph 78 % 0.0 in 0.0 W/m2 CLR
05:41 0.6 °F -2.8 °F 1021.6 in NW 22.2 mph 22.2 mph 78 % 0.0 in 0.0 W/m2 CLR
05:46 0.6 °F -2.8 °F 1021.6 in NW 24.1 mph 24.1 mph 78 % 0.0 in 0.0 W/m2 CLR
05:51 0.6 °F -2.8 °F 1021.6 in WNW 22.2 mph 22.2 mph 78 % 0.0 in 0.0 W/m2 CLR
05:56 0.6 °F -2.8 °F 1021.6 in NNW 18.5 mph 18.5 mph 78 % 0.0 in 0.0 W/m2 CLR
06:01 0.0 °F -3.4 °F 1021.6 in NW 16.7 mph 16.7 mph 78 % 0.0 in 0.0 W/m2 CLR
06:06 0.0 °F -3.2 °F 1021.6 in NW 16.7 mph 16.7 mph 79 % 0.0 in 0.0 W/m2 CLR
06:11 0.0 °F -3.2 °F 1021.6 in NW 16.7 mph 16.7 mph 79 % 0.0 in 0.0 W/m2 CLR
06:16 0.0 °F -3.2 °F 1021.6 in WNW 14.8 mph 14.8 mph 79 % 0.0 in 0.0 W/m2 CLR
06:21 0.0 °F -3.2 °F 1021.2 in WNW 22.2 mph 22.2 mph 79 % 0.0 in 0.0 W/m2 CLR
06:26 0.0 °F -3.4 °F 1021.2 in NW 18.5 mph 18.5 mph 78 % 0.0 in 0.0 W/m2 CLR
06:31 0.0 °F -3.4 °F 1021.2 in NW 18.5 mph 18.5 mph 78 % 0.0 in 0.0 W/m2 CLR
06:36 0.0 °F -3.4 °F 1021.2 in NW 18.5 mph 18.5 mph 78 % 0.0 in 0.0 W/m2 CLR
06:41 0.0 °F -3.4 °F 1021.2 in NW 18.5 mph 18.5 mph 78 % 0.0 in 0.0 W/m2 CLR
06:46 0.0 °F -3.2 °F 1021.2 in NW 22.2 mph 22.2 mph 79 % 0.0 in 0.0 W/m2 CLR
06:51 0.0 °F -3.2 °F 1021.2 in NW 27.8 mph 27.8 mph 79 % 0.0 in 0.0 W/m2 CLR
06:56 0.6 °F -2.8 °F 1021.2 in WNW 22.5 mph 22.5 mph 78 % 0.0 in 0.0 W/m2 CLR
07:01 0.6 °F -2.8 °F 1021.2 in WNW 20.4 mph 20.4 mph 78 % 0.0 in 0.0 W/m2 CLR
07:06 0.6 °F -2.7 °F 1021.2 in WNW 25.9 mph 25.9 mph 79 % 0.0 in 0.0 W/m2 CLR
07:11 0.6 °F -2.7 °F 1021.6 in WNW 18.5 mph 18.5 mph 79 % 0.0 in 0.0 W/m2 CLR
07:16 0.6 °F -2.7 °F 1021.6 in West 22.5 mph 22.5 mph 79 % 0.0 in 0.0 W/m2 CLR
07:21 0.0 °F -3.2 °F 1021.6 in WNW 16.7 mph 16.7 mph 79 % 0.0 in 0.0 W/m2 CLR
07:26 0.0 °F -3.2 °F 1021.6 in WNW 14.8 mph 14.8 mph 79 % 0.0 in 0.0 W/m2 CLR
07:31 0.0 °F -3.2 °F 1021.6 in WNW 12.9 mph 12.9 mph 79 % 0.0 in 0.0 W/m2 CLR
07:36 -0.6 °F -3.8 °F 1021.6 in NW 5.6 mph 5.6 mph 79 % 0.0 in 0.0 W/m2 CLR
07:41 -0.6 °F -3.6 °F 1021.6 in WNW 14.8 mph 14.8 mph 80 % 0.0 in 0.0 W/m2 CLR
07:46 -0.6 °F -3.6 °F 1021.6 in NW 13.0 mph 13.0 mph 80 % 0.0 in 0.0 W/m2 CLR
07:51 -0.6 °F -3.6 °F 1021.6 in NW 9.3 mph 9.3 mph 80 % 0.0 in 0.0 W/m2 CLR
07:56 -0.6 °F -3.6 °F 1021.6 in NW 7.4 mph 7.4 mph 80 % 0.0 in 0.0 W/m2 CLR
08:01 -0.6 °F -3.6 °F 1021.6 in NNW 9.3 mph 9.3 mph 80 % 0.0 in 5.0 W/m2 OVC
08:07 -0.6 °F -3.6 °F 1021.6 in WNW 11.1 mph 11.1 mph 80 % 0.0 in 7.0 W/m2 OVC
08:12 -0.6 °F -3.6 °F 1021.6 in NW 13.0 mph 13.0 mph 80 % 0.0 in 9.0 W/m2 BKN
08:17 -0.6 °F -3.4 °F 1021.6 in NNW 16.7 mph 16.7 mph 81 % 0.0 in 11.0 W/m2 BKN
08:22 -0.6 °F -3.4 °F 1021.6 in NW 6.4 mph 6.4 mph 81 % 0.0 in 14.0 W/m2 BKN
08:27 -0.6 °F -3.4 °F 1021.6 in NW 22.2 mph 22.2 mph 81 % 0.0 in 16.0 W/m2 BKN
08:32 0.0 °F -3.1 °F 1021.6 in NW 14.8 mph 14.8 mph 80 % 0.0 in 19.0 W/m2 BKN
08:37 0.0 °F -3.1 °F 1021.6 in NW 14.8 mph 14.8 mph 80 % 0.0 in 26.0 W/m2 BKN
08:42 0.6 °F -2.7 °F 1021.6 in NW 14.8 mph 14.8 mph 79 % 0.0 in 37.0 W/m2 BKN
08:47 1.1 °F -2.1 °F 1021.6 in NNW 14.5 mph 14.5 mph 79 % 0.0 in 51.0 W/m2 SCT
08:52 1.1 °F -2.1 °F 1021.6 in NW 22.2 mph 22.2 mph 79 % 0.0 in 62.0 W/m2 SCT
08:57 1.1 °F -2.1 °F 1021.6 in NW 22.2 mph 22.2 mph 79 % 0.0 in 76.0 W/m2 FEW
09:02 1.1 °F -2.3 °F 1021.9 in NNW 16.7 mph 16.7 mph 78 % 0.0 in 86.0 W/m2 CLR
09:07 1.1 °F -2.3 °F 1021.9 in NW 16.7 mph 16.7 mph 78 % 0.0 in 105.0 W/m2 FEW
09:12 1.7 °F -1.9 °F 1021.9 in NW 13.0 mph 13.0 mph 77 % 0.0 in 123.0 W/m2 CLR
09:17 1.7 °F -1.9 °F 1021.9 in NNW 16.7 mph 16.7 mph 77 % 0.0 in 109.0 W/m2 CLR
09:22 1.7 °F -2.1 °F 1021.9 in NNW 16.7 mph 16.7 mph 76 % 0.0 in 153.0 W/m2 CLR
09:27 2.2 °F -1.6 °F 1021.9 in NW 24.1 mph 24.1 mph 76 % 0.0 in 169.0 W/m2 CLR
09:32 2.2 °F -1.8 °F 1021.9 in NNW 27.8 mph 27.8 mph 75 % 0.0 in 137.0 W/m2 CLR
09:37 2.2 °F -1.8 °F 1022.2 in NNW 29.6 mph 29.6 mph 75 % 0.0 in 158.0 W/m2 CLR
09:42 2.8 °F -1.2 °F 1021.9 in WNW 25.9 mph 25.9 mph 75 % 0.0 in 216.0 W/m2 CLR
09:47 2.8 °F -1.2 °F 1022.2 in NNW 27.8 mph 27.8 mph 75 % 0.0 in 246.0 W/m2 CLR
09:52 2.8 °F -1.2 °F 1022.2 in NNW 32.2 mph 32.2 mph 75 % 0.0 in 267.0 W/m2 CLR
09:57 2.8 °F -1.2 °F 1021.9 in NNW 29.6 mph 29.6 mph 75 % 0.0 in 267.0 W/m2 CLR
10:02 2.8 °F -1.2 °F 1022.2 in NNW 25.9 mph 25.9 mph 75 % 0.0 in 294.0 W/m2 CLR
10:07 3.3 °F -0.7 °F 1022.2 in NNW 31.5 mph 31.5 mph 75 % 0.0 in 306.0 W/m2 CLR
10:12 3.3 °F -0.7 °F 1021.9 in NNW 31.5 mph 31.5 mph 75 % 0.0 in 320.0 W/m2 CLR
10:17 3.3 °F -0.7 °F 1021.9 in WNW 31.5 mph 31.5 mph 75 % 0.0 in 332.0 W/m2 CLR
10:22 3.3 °F -0.7 °F 1021.9 in NW 27.8 mph 27.8 mph 75 % 0.0 in 343.0 W/m2 CLR
10:27 3.3 °F -0.9 °F 1021.9 in NNW 38.9 mph 38.9 mph 74 % 0.0 in 355.0 W/m2 CLR
10:32 3.9 °F -0.2 °F 1021.9 in NNW 25.9 mph 25.9 mph 75 % 0.0 in 390.0 W/m2 CLR
10:37 3.9 °F -0.3 °F 1021.9 in North 33.3 mph 33.3 mph 74 % 0.0 in 388.0 W/m2 CLR
10:42 3.9 °F -0.3 °F 1021.9 in NNW 35.2 mph 35.2 mph 74 % 0.0 in 397.0 W/m2 CLR
10:47 4.4 °F 0.2 °F 1021.9 in NNW 25.9 mph 25.9 mph 74 % 0.0 in 403.0 W/m2 CLR
10:52 4.4 °F -0.2 °F 1022.2 in NW 42.6 mph 42.6 mph 72 % 0.0 in 464.0 W/m2 CLR
10:57 5.0 °F 0.6 °F 1022.2 in NNW 25.9 mph 25.9 mph 73 % 0.0 in 480.0 W/m2 CLR
11:02 4.4 °F -0.2 °F 1022.2 in NW 29.6 mph 29.6 mph 72 % 0.0 in 230.0 W/m2 CLR
11:07 4.4 °F 0.2 °F 1022.2 in North 25.9 mph 25.9 mph 74 % 0.0 in 461.0 W/m2 CLR
11:12 4.4 °F 0.0 °F 1022.2 in North 40.7 mph 40.7 mph 73 % 0.0 in 214.0 W/m2 CLR
11:17 4.4 °F -0.2 °F 1022.2 in NNW 33.8 mph 33.8 mph 72 % 0.0 in 151.0 W/m2 CLR
11:22 4.4 °F 0.0 °F 1022.2 in NW 20.4 mph 20.4 mph 73 % 0.0 in 123.0 W/m2 CLR
11:27 4.4 °F 0.0 °F 1022.2 in NNW 35.2 mph 35.2 mph 73 % 0.0 in 95.0 W/m2 CLR
11:32 3.9 °F -0.5 °F 1022.2 in North 27.8 mph 27.8 mph 73 % 0.0 in 111.0 W/m2 CLR
11:37 3.9 °F -0.5 °F 1022.2 in NNW 25.9 mph 25.9 mph 73 % 0.0 in 95.0 W/m2 CLR
11:42 3.9 °F -0.7 °F 1022.2 in NNW 30.6 mph 30.6 mph 72 % 0.0 in 121.0 W/m2 CLR
11:47 3.9 °F -0.7 °F 1021.9 in North 31.5 mph 31.5 mph 72 % 0.0 in 113.0 W/m2 CLR
11:52 3.9 °F -0.7 °F 1021.9 in NNW 29.6 mph 29.6 mph 72 % 0.0 in 113.0 W/m2 CLR
11:57 4.4 °F -0.2 °F 1022.2 in North 31.5 mph 31.5 mph 72 % 0.0 in 128.0 W/m2 CLR
12:02 4.4 °F -0.2 °F 1021.9 in North 31.5 mph 31.5 mph 72 % 0.0 in 100.0 W/m2 CLR
12:07 4.4 °F -0.2 °F 1021.9 in North 27.8 mph 27.8 mph 72 % 0.0 in 83.0 W/m2 CLR
12:12 3.9 °F -0.5 °F 1021.9 in North 25.9 mph 25.9 mph 73 % 0.0 in 109.0 W/m2 CLR
12:17 4.4 °F 0.0 °F 1021.9 in North 27.8 mph 27.8 mph 73 % 0.0 in 121.0 W/m2 CLR
12:22 4.4 °F 0.2 °F 1021.9 in NNW 24.1 mph 24.1 mph 74 % 0.0 in 109.0 W/m2 CLR
12:27 4.4 °F 0.0 °F 1021.6 in NNE 35.2 mph 35.2 mph 73 % 0.0 in 123.0 W/m2 CLR
12:32 4.4 °F 0.0 °F 1021.9 in NNW 27.8 mph 27.8 mph 73 % 0.0 in 120.0 W/m2 CLR
12:37 4.4 °F -0.2 °F 1021.6 in NNW 31.5 mph 31.5 mph 72 % 0.0 in 91.0 W/m2 CLR
12:42 4.4 °F 0.0 °F 1021.6 in North 31.5 mph 31.5 mph 73 % 0.0 in 105.0 W/m2 CLR
12:47 4.4 °F 0.2 °F 1021.6 in North 25.9 mph 25.9 mph 74 % 0.0 in 109.0 W/m2 CLR
12:52 4.4 °F 0.2 °F 1021.6 in North 25.9 mph 25.9 mph 74 % 0.0 in 95.0 W/m2 CLR
12:57 3.9 °F -0.3 °F 1021.6 in North 37.0 mph 37.0 mph 74 % 0.0 in 77.0 W/m2 CLR
13:02 3.9 °F -0.3 °F 1021.2 in NNW 24.1 mph 24.1 mph 74 % 0.0 in 91.0 W/m2 CLR
13:07 3.9 °F -0.2 °F 1021.2 in North 27.8 mph 27.8 mph 75 % 0.0 in 109.0 W/m2 CLR
13:12 3.9 °F -0.2 °F 1021.2 in North 35.2 mph 35.2 mph 75 % 0.0 in 132.0 W/m2 CLR
13:17 4.4 °F 0.4 °F 1021.2 in NNW 24.1 mph 24.1 mph 75 % 0.0 in 123.0 W/m2 CLR
13:22 4.4 °F 0.4 °F 1021.2 in NNW 29.6 mph 29.6 mph 75 % 0.0 in 114.0 W/m2 CLR
13:27 4.4 °F 0.4 °F 1020.9 in NNW 29.6 mph 29.6 mph 75 % 0.0 in 88.0 W/m2 CLR
13:32 4.4 °F 0.4 °F 1020.9 in NNW 29.6 mph 29.6 mph 75 % 0.0 in 109.0 W/m2 CLR
13:37 4.4 °F 0.6 °F 1021.2 in NW 20.4 mph 20.4 mph 76 % 0.0 in 139.0 W/m2 CLR
13:42 4.4 °F 0.6 °F 1020.9 in NNW 17.7 mph 17.7 mph 76 % 0.0 in 144.0 W/m2 CLR
13:47 4.4 °F 0.6 °F 1020.9 in NNE 16.1 mph 16.1 mph 76 % 0.0 in 185.0 W/m2 CLR
13:52 4.4 °F 0.4 °F 1020.9 in NNW 24.1 mph 24.1 mph 75 % 0.0 in 213.0 W/m2 CLR
13:57 5.0 °F 0.9 °F 1020.9 in NNW 24.1 mph 24.1 mph 75 % 0.0 in 137.0 W/m2 CLR
14:02 5.0 °F 0.7 °F 1020.9 in NNE 24.1 mph 24.1 mph 74 % 0.0 in 109.0 W/m2 CLR
14:07 5.0 °F 0.7 °F 1020.9 in NNW 29.6 mph 29.6 mph 74 % 0.0 in 163.0 W/m2 CLR
14:12 5.0 °F 0.4 °F 1020.9 in North 24.1 mph 24.1 mph 72 % 0.0 in 153.0 W/m2 CLR
14:17 5.0 °F 0.6 °F 1020.9 in North 24.1 mph 24.1 mph 73 % 0.0 in 169.0 W/m2 CLR
14:23 5.0 °F 0.4 °F 1020.9 in NNW 19.3 mph 19.3 mph 72 % 0.0 in 176.0 W/m2 CLR
14:28 5.0 °F 0.4 °F 1020.5 in NNW 24.1 mph 24.1 mph 72 % 0.0 in 84.0 W/m2 CLR
14:33 5.0 °F 0.4 °F 1020.5 in North 31.5 mph 31.5 mph 72 % 0.0 in 118.0 W/m2 CLR
14:38 5.0 °F 0.6 °F 1020.5 in NNW 24.1 mph 24.1 mph 73 % 0.0 in 179.0 W/m2 CLR
14:43 5.0 °F 0.4 °F 1020.5 in NW 27.8 mph 27.8 mph 72 % 0.0 in 165.0 W/m2 CLR
14:48 5.0 °F 0.6 °F 1020.5 in North 18.5 mph 18.5 mph 73 % 0.0 in 178.0 W/m2 CLR
14:53 6.1 °F 1.2 °F 1020.2 in NNW 25.9 mph 25.9 mph 71 % 0.0 in 663.0 W/m2 CLR
14:58 6.7 °F 1.6 °F 1020.2 in NW 22.2 mph 22.2 mph 70 % 0.0 in 213.0 W/m2 CLR
15:03 6.7 °F 1.4 °F 1020.2 in NW 20.9 mph 20.9 mph 69 % 0.0 in 116.0 W/m2 CLR
15:08 6.1 °F 1.1 °F 1020.2 in NNW 18.5 mph 18.5 mph 70 % 0.0 in 160.0 W/m2 CLR
15:13 6.1 °F 1.2 °F 1020.2 in North 18.5 mph 18.5 mph 71 % 0.0 in 149.0 W/m2 CLR
15:18 6.1 °F 1.2 °F 1020.2 in NW 18.5 mph 18.5 mph 71 % 0.0 in 246.0 W/m2 CLR
15:23 6.7 °F 1.6 °F 1020.2 in North 14.8 mph 14.8 mph 70 % 0.0 in 246.0 W/m2 CLR
15:28 6.7 °F 1.6 °F 1020.2 in North 18.5 mph 18.5 mph 70 % 0.0 in 202.0 W/m2 CLR
15:33 6.7 °F 1.4 °F 1020.2 in Calm     69 % 0.0 in 162.0 W/m2 CLR
15:38 6.7 °F 0.8 °F 1020.2 in North 20.4 mph 20.4 mph 66 % 0.0 in 162.0 W/m2 CLR
15:43 6.7 °F 0.6 °F 1020.2 in NW 20.4 mph 20.4 mph 65 % 0.0 in 114.0 W/m2 CLR
15:48 6.7 °F 0.6 °F 1020.2 in North 14.8 mph 14.8 mph 65 % 0.0 in 100.0 W/m2 CLR
15:53 6.1 °F 0.2 °F 1020.2 in NNW 14.8 mph 14.8 mph 66 % 0.0 in 49.0 W/m2 FEW
15:58 6.1 °F 0.0 °F 1019.9 in NNW 16.7 mph 16.7 mph 65 % 0.0 in 60.0 W/m2 SCT
16:03 6.1 °F 0.0 °F 1020.2 in NW 9.3 mph 9.3 mph 65 % 0.0 in 67.0 W/m2 SCT
16:08 6.1 °F 0.0 °F 1020.2 in NNW 18.5 mph 18.5 mph 65 % 0.0 in 39.0 W/m2 SCT
16:13 6.1 °F -0.4 °F 1020.2 in NNW 31.5 mph 31.5 mph 63 % 0.0 in 46.0 W/m2 BKN
16:18 6.1 °F -0.4 °F 1020.2 in North 27.8 mph 27.8 mph 63 % 0.0 in 69.0 W/m2 SCT
16:23 6.1 °F -0.4 °F 1020.2 in North 27.4 mph 27.4 mph 63 % 0.0 in 56.0 W/m2 SCT
16:28 6.1 °F -0.4 °F 1020.2 in NNW 29.6 mph 29.6 mph 63 % 0.0 in 54.0 W/m2 SCT
16:33 6.1 °F -0.4 °F 1020.2 in NNW 24.1 mph 24.1 mph 63 % 0.0 in 62.0 W/m2 SCT
16:38 6.1 °F -0.4 °F 1020.2 in North 25.9 mph 25.9 mph 63 % 0.0 in 46.0 W/m2 SCT
16:43 6.1 °F -0.4 °F 1020.2 in North 31.5 mph 31.5 mph 63 % 0.0 in 30.0 W/m2 BKN
16:48 5.6 °F -0.9 °F 1020.2 in NNW 25.9 mph 25.9 mph 63 % 0.0 in 40.0 W/m2 BKN
16:53 5.6 °F -0.9 °F 1020.2 in NNW 27.8 mph 27.8 mph 63 % 0.0 in 21.0 W/m2 BKN
16:58 5.6 °F -0.7 °F 1020.2 in North 25.9 mph 25.9 mph 64 % 0.0 in 25.0 W/m2 BKN
17:03 5.6 °F -0.7 °F 1020.2 in NNW 24.1 mph 24.1 mph 64 % 0.0 in 21.0 W/m2 BKN
17:08 5.6 °F -0.9 °F 1020.2 in North 29.6 mph 29.6 mph 63 % 0.0 in 19.0 W/m2 BKN
17:13 5.6 °F -0.9 °F 1020.2 in NNW 24.1 mph 24.1 mph 63 % 0.0 in 23.0 W/m2 BKN
17:18 5.6 °F -0.7 °F 1020.5 in NNW 32.2 mph 32.2 mph 64 % 0.0 in 16.0 W/m2 BKN
17:23 5.6 °F -0.9 °F 1020.5 in NNW 27.8 mph 27.8 mph 63 % 0.0 in 18.0 W/m2 BKN
17:28 5.6 °F -0.7 °F 1020.5 in NW 20.4 mph 20.4 mph 64 % 0.0 in 21.0 W/m2 BKN
17:33 5.6 °F -0.7 °F 1020.5 in North 25.7 mph 25.7 mph 64 % 0.0 in 23.0 W/m2 BKN
17:38 5.6 °F -0.7 °F 1020.5 in North 31.5 mph 31.5 mph 64 % 0.0 in 18.0 W/m2 BKN
17:43 5.6 °F -0.7 °F 1020.2 in NNW 24.1 mph 24.1 mph 64 % 0.0 in 12.0 W/m2 BKN
17:48 5.0 °F -1.3 °F 1020.5 in NNW 24.1 mph 24.1 mph 64 % 0.0 in 11.0 W/m2 BKN
17:53 5.0 °F -1.1 °F 1020.5 in NNW 27.8 mph 27.8 mph 65 % 0.0 in 9.0 W/m2 BKN
17:58 5.0 °F -1.1 °F 1020.5 in North 20.9 mph 20.9 mph 65 % 0.0 in 5.0 W/m2 OVC
18:03 5.0 °F -0.8 °F 1020.9 in ENE 17.7 mph 17.7 mph 66 % 0.0 in 0.0 W/m2 OVC
18:08 4.4 °F -0.6 °F 1020.9 in East 18.5 mph 18.5 mph 70 % 0.0 in 0.0 W/m2 OVC
18:13 3.9 °F -0.3 °F 1020.9 in SE 14.8 mph 14.8 mph 74 % 0.0 in 0.0 W/m2 OVC
18:18 3.3 °F -0.3 °F 1021.2 in ESE 6.4 mph 6.4 mph 77 % 0.0 in 0.0 W/m2 OVC
18:23 3.3 °F 0.1 °F 1021.2 in ESE 18.5 mph 18.5 mph 79 % 0.0 in 0.0 W/m2 OVC
18:28 3.3 °F 0.4 °F 1021.6 in ESE 5.6 mph 5.6 mph 81 % 0.0 in 0.0 W/m2 OVC
18:33 2.8 °F 0.0 °F 1021.6 in SSE 11.3 mph 11.3 mph 82 % 0.0 in 0.0 W/m2 OVC
18:38 2.8 °F 0.2 °F 1021.6 in South 11.1 mph 11.1 mph 83 % 0.0 in 0.0 W/m2 CLR
18:43 2.8 °F 0.3 °F 1021.6 in SSE 7.4 mph 7.4 mph 84 % 0.3 in 0.0 W/m2 RA
18:48 2.2 °F -0.1 °F 1021.6 in SE 3.7 mph 3.7 mph 85 % 0.3 in 0.0 W/m2 CLR
18:54 2.2 °F 0.1 °F 1021.6 in SSE 6.4 mph 6.4 mph 86 % 0.3 in 0.0 W/m2 CLR
18:59 2.2 °F 0.3 °F 1021.6 in SE 8.0 mph 8.0 mph 87 % 0.5 in 0.0 W/m2 RA
19:04 2.2 °F 0.3 °F 1021.9 in SSE 7.4 mph 7.4 mph 87 % 0.5 in 0.0 W/m2 CLR
19:09 1.7 °F -0.1 °F 1021.9 in South 13.0 mph 13.0 mph 88 % 0.5 in 0.0 W/m2 CLR
19:14 1.7 °F -0.1 °F 1021.9 in SSE 9.3 mph 9.3 mph 88 % 0.5 in 0.0 W/m2 CLR
19:19 1.7 °F 0.1 °F 1021.9 in South 11.3 mph 11.3 mph 89 % 0.5 in 0.0 W/m2 CLR
19:24 1.7 °F 0.1 °F 1021.9 in South 5.6 mph 5.6 mph 89 % 0.5 in 0.0 W/m2 CLR
19:29 1.7 °F 0.1 °F 1021.9 in SSE 3.7 mph 3.7 mph 89 % 0.5 in 0.0 W/m2 CLR
19:34 1.7 °F 0.2 °F 1021.9 in SSE 7.4 mph 7.4 mph 90 % 0.5 in 0.0 W/m2 CLR
19:39 1.7 °F 0.2 °F 1022.2 in SSE 5.6 mph 5.6 mph 90 % 0.3 in 0.0 W/m2 CLR
19:44 1.7 °F 0.2 °F 1022.2 in SSW 11.1 mph 11.1 mph 90 % 0.3 in 0.0 W/m2 CLR
19:49 1.7 °F 0.2 °F 1022.2 in South 5.6 mph 5.6 mph 90 % 0.3 in 0.0 W/m2 CLR
19:54 1.7 °F 0.2 °F 1022.2 in SSE 12.9 mph 12.9 mph 90 % 0.3 in 0.0 W/m2 CLR
19:59 1.7 °F 0.2 °F 1022.2 in SSW 7.4 mph 7.4 mph 90 % 0.0 in 0.0 W/m2 CLR
20:04 1.7 °F 0.2 °F 1022.2 in SW 5.6 mph 5.6 mph 90 % 0.0 in 0.0 W/m2 CLR
20:09 1.7 °F 0.2 °F 1022.2 in SW 9.3 mph 9.3 mph 90 % 0.0 in 0.0 W/m2 CLR
20:14 1.7 °F 0.2 °F 1022.2 in Calm     90 % 0.0 in 0.0 W/m2 CLR
20:19 1.7 °F 0.2 °F 1022.6 in Calm     90 % 0.0 in 0.0 W/m2 CLR
20:24 1.7 °F 0.2 °F 1022.6 in NW 6.4 mph 6.4 mph 90 % 0.0 in 0.0 W/m2 CLR
20:29 1.7 °F 0.2 °F 1022.6 in NW 13.0 mph 13.0 mph 90 % 0.0 in 0.0 W/m2 CLR
20:34 1.7 °F 0.2 °F 1022.2 in NW 13.0 mph 13.0 mph 90 % 0.0 in 0.0 W/m2 CLR
20:39 1.7 °F 0.1 °F 1022.2 in NW 14.8 mph 14.8 mph 89 % 0.0 in 0.0 W/m2 CLR
20:44 1.7 °F -0.1 °F 1021.9 in WNW 18.5 mph 18.5 mph 88 % 0.0 in 0.0 W/m2 CLR
20:49 1.7 °F 0.1 °F 1021.9 in WNW 9.3 mph 9.3 mph 89 % 0.0 in 0.0 W/m2 CLR
20:54 1.7 °F 0.1 °F 1021.9 in WNW 13.0 mph 13.0 mph 89 % 0.0 in 0.0 W/m2 CLR
20:59 1.7 °F 0.1 °F 1021.9 in WNW 8.0 mph 8.0 mph 89 % 0.0 in 0.0 W/m2 CLR
21:04 1.1 °F -0.5 °F 1022.2 in WNW 14.8 mph 14.8 mph 89 % 0.0 in 0.0 W/m2 CLR
21:09 1.1 °F -0.5 °F 1022.2 in WNW 13.0 mph 13.0 mph 89 % 0.0 in 0.0 W/m2 CLR
21:14 1.1 °F -0.5 °F 1022.2 in West 16.7 mph 16.7 mph 89 % 0.0 in 0.0 W/m2 CLR
21:19 1.1 °F -0.5 °F 1022.2 in West 9.7 mph 9.7 mph 89 % 0.0 in 0.0 W/m2 CLR
21:24 1.1 °F -0.5 °F 1022.2 in West 14.5 mph 14.5 mph 89 % 0.0 in 0.0 W/m2 CLR
21:29 1.1 °F -0.5 °F 1022.6 in West 11.1 mph 11.1 mph 89 % 0.0 in 0.0 W/m2 CLR
21:34 0.6 °F -1.1 °F 1022.6 in West 7.4 mph 7.4 mph 89 % 0.0 in 0.0 W/m2 CLR
21:39 0.6 °F -0.9 °F 1022.6 in West 5.6 mph 5.6 mph 90 % 0.0 in 0.0 W/m2 CLR
21:44 0.6 °F -0.9 °F 1022.6 in West 3.7 mph 3.7 mph 90 % 0.0 in 0.0 W/m2 CLR
21:49 0.0 °F -1.4 °F 1022.6 in WSW 5.6 mph 5.6 mph 90 % 0.0 in 0.0 W/m2 CLR
21:54 0.6 °F -0.9 °F 1022.9 in WSW 5.6 mph 5.6 mph 90 % 0.0 in 0.0 W/m2 CLR
21:59 0.0 °F -1.4 °F 1022.9 in WSW 5.6 mph 5.6 mph 90 % 0.0 in 0.0 W/m2 CLR
22:04 0.0 °F -1.4 °F 1022.6 in WSW 5.6 mph 5.6 mph 90 % 0.0 in 0.0 W/m2 CLR
22:09 0.0 °F -1.4 °F 1022.6 in WSW 5.6 mph 5.6 mph 90 % 0.0 in 0.0 W/m2 CLR
22:14 0.0 °F -1.4 °F 1022.6 in WSW 6.4 mph 6.4 mph 90 % 0.0 in 0.0 W/m2 CLR
22:19 0.0 °F -1.4 °F 1022.6 in WSW 6.4 mph 6.4 mph 90 % 0.0 in 0.0 W/m2 CLR
22:24 0.0 °F -1.4 °F 1022.6 in WSW 6.4 mph 6.4 mph 90 % 0.0 in 0.0 W/m2 CLR
22:29 0.0 °F -1.3 °F 1022.6 in WSW 3.7 mph 3.7 mph 91 % 0.0 in 0.0 W/m2 CLR
22:34 0.0 °F -1.3 °F 1022.6 in SW 5.6 mph 5.6 mph 91 % 0.0 in 0.0 W/m2 CLR
22:39 -0.6 °F -1.8 °F 1022.6 in SW 6.4 mph 6.4 mph 91 % 0.0 in 0.0 W/m2 CLR
22:44 -0.6 °F -1.8 °F 1022.6 in SW 6.4 mph 6.4 mph 91 % 0.0 in 0.0 W/m2 CLR
22:49 -0.6 °F -1.8 °F 1022.6 in West 5.6 mph 5.6 mph 91 % 0.0 in 0.0 W/m2 CLR
22:54 -0.6 °F -1.8 °F 1022.6 in Calm     91 % 0.0 in 0.0 W/m2 CLR
22:59 -0.6 °F -1.8 °F 1022.6 in Calm     91 % 0.0 in 0.0 W/m2 CLR
23:04 -0.6 °F -1.8 °F 1022.9 in South 5.6 mph 5.6 mph 91 % 0.0 in 0.0 W/m2 CLR
23:09 -0.6 °F -1.8 °F 1022.9 in SE 5.6 mph 5.6 mph 91 % 0.0 in 0.0 W/m2 CLR
23:14 -0.6 °F -1.8 °F 1022.9 in SE 3.7 mph 3.7 mph 91 % 0.0 in 0.0 W/m2 CLR
23:19 -1.1 °F -2.4 °F 1022.9 in Calm     91 % 0.0 in 0.0 W/m2 CLR
23:24 -1.1 °F -2.4 °F 1022.9 in Calm     91 % 0.0 in 0.0 W/m2 CLR
23:29 -1.1 °F -2.4 °F 1022.9 in West 1.6 mph   91 % 0.0 in 0.0 W/m2 CLR
23:35 -1.7 °F -2.9 °F 1022.9 in West 7.4 mph 7.4 mph 91 % 0.0 in 0.0 W/m2 CLR
23:40 -1.7 °F -3.1 °F 1022.9 in West 3.7 mph 3.7 mph 90 % 0.0 in 0.0 W/m2 CLR
23:45 -2.2 °F -3.7 °F 1022.9 in West 7.4 mph 7.4 mph 90 % 0.0 in 0.0 W/m2 CLR
23:50 -2.2 °F -3.7 °F 1022.9 in West 5.6 mph 5.6 mph 90 % 0.0 in 0.0 W/m2 CLR
23:55 -2.2 °F -3.7 °F 1022.9 in West 8.0 mph 8.0 mph 90 % 0.0 in 0.0 W/m2 CLR
Lo Temps de Massalio
Compliments of Weather Underground - 1.25 mb